createdAt,value
2023-04-16T00:00:26.643Z,16.23
2023-04-16T00:00:58.239Z,14.10
2023-04-16T00:01:29.848Z,14.40
2023-04-16T00:02:01.802Z,15.50
2023-04-16T00:02:34.673Z,14.32
2023-04-16T00:03:06.741Z,18.23
2023-04-16T00:03:38.984Z,16.33
2023-04-16T00:04:10.905Z,14.45
2023-04-16T00:04:42.830Z,17.38
2023-04-16T00:05:15.178Z,16.63
2023-04-16T00:05:47.091Z,17.92
2023-04-16T00:06:18.761Z,15.70
2023-04-16T00:06:50.467Z,14.45
2023-04-16T00:07:22.047Z,16.65
2023-04-16T00:07:53.621Z,18.42
2023-04-16T00:08:25.300Z,16.05
2023-04-16T00:08:56.998Z,15.05
2023-04-16T00:09:28.662Z,15.88
2023-04-16T00:10:00.290Z,16.38
2023-04-16T00:10:32.102Z,18.13
2023-04-16T00:11:05.759Z,15.73
2023-04-16T00:11:37.400Z,16.75
2023-04-16T00:12:09.048Z,16.38
2023-04-16T00:12:40.801Z,15.50
2023-04-16T00:13:12.558Z,16.27
2023-04-16T00:13:44.205Z,15.70
2023-04-16T00:14:15.778Z,16.83
2023-04-16T00:14:47.398Z,16.63
2023-04-16T00:15:19.003Z,15.32
2023-04-16T00:15:51.185Z,15.80
2023-04-16T00:16:22.801Z,16.45
2023-04-16T00:16:54.432Z,17.10
2023-04-16T00:17:26.115Z,14.52
2023-04-16T00:17:57.849Z,15.50
2023-04-16T00:18:29.496Z,17.67
2023-04-16T00:19:01.102Z,15.68
2023-04-16T00:19:32.816Z,15.93
2023-04-16T00:20:05.016Z,14.32
2023-04-16T00:20:36.631Z,15.52
2023-04-16T00:21:08.347Z,13.95
2023-04-16T00:21:39.909Z,15.18
2023-04-16T00:22:11.540Z,15.00
2023-04-16T00:22:43.191Z,15.15
2023-04-16T00:23:14.761Z,14.93
2023-04-16T00:23:46.627Z,16.38
2023-04-16T00:24:18.638Z,16.08
2023-04-16T00:24:50.944Z,14.27
2023-04-16T00:25:22.677Z,15.73
2023-04-16T00:25:57.354Z,18.50
2023-04-16T00:26:29.056Z,15.32
2023-04-16T00:27:01.659Z,15.18
2023-04-16T00:27:33.269Z,14.05
2023-04-16T00:28:05.625Z,15.15
2023-04-16T00:28:37.279Z,16.40
2023-04-16T00:29:09.128Z,14.38
2023-04-16T00:29:40.969Z,15.40
2023-04-16T00:30:12.820Z,15.85
2023-04-16T00:30:44.530Z,15.75
2023-04-16T00:31:16.250Z,15.57
2023-04-16T00:31:47.841Z,16.75
2023-04-16T00:32:19.732Z,15.40
2023-04-16T00:32:51.401Z,16.20
2023-04-16T00:33:24.383Z,16.05
2023-04-16T00:33:56.101Z,15.57
2023-04-16T00:34:27.786Z,16.38
2023-04-16T00:34:59.380Z,15.18
2023-04-16T00:35:31.007Z,15.63
2023-04-16T00:36:02.643Z,13.88
2023-04-16T00:36:34.374Z,15.10
2023-04-16T00:37:05.942Z,17.92
2023-04-16T00:37:37.536Z,18.00
2023-04-16T00:38:09.113Z,16.40
2023-04-16T00:38:40.709Z,15.80
2023-04-16T00:39:12.341Z,14.60
2023-04-16T00:39:43.908Z,17.20
2023-04-16T00:40:15.611Z,16.15
2023-04-16T00:40:47.291Z,12.77
2023-04-16T00:41:19.312Z,12.45
2023-04-16T00:41:51.063Z,12.60
2023-04-16T00:42:22.695Z,13.48
2023-04-16T00:42:54.416Z,13.45
2023-04-16T00:43:26.845Z,11.75
2023-04-16T00:43:58.493Z,14.38
2023-04-16T00:44:30.541Z,13.65
2023-04-16T00:45:02.199Z,16.58
2023-04-16T00:45:33.965Z,18.13
2023-04-16T00:46:09.183Z,23.27
2023-04-16T00:46:41.974Z,24.27
2023-04-16T00:47:13.770Z,21.98
2023-04-16T00:47:45.989Z,20.77
2023-04-16T00:48:17.905Z,21.63
2023-04-16T00:48:51.198Z,22.42
2023-04-16T00:49:24.479Z,21.25
2023-04-16T00:49:56.172Z,17.33
2023-04-16T00:50:28.338Z,18.45
2023-04-16T00:51:01.785Z,19.02
2023-04-16T00:51:35.407Z,19.90
2023-04-16T00:52:07.194Z,19.40
2023-04-16T00:52:38.857Z,14.43
2023-04-16T00:53:10.544Z,15.80
2023-04-16T00:53:42.576Z,16.60
2023-04-16T00:54:14.241Z,15.27
2023-04-16T00:54:46.094Z,17.13
2023-04-16T00:55:19.052Z,18.15
2023-04-16T00:55:51.158Z,14.63
2023-04-16T00:56:24.276Z,15.20
2023-04-16T00:56:56.762Z,16.20
2023-04-16T00:57:28.342Z,16.40
2023-04-16T00:57:59.924Z,16.25
2023-04-16T00:58:31.896Z,16.25
2023-04-16T00:59:03.751Z,14.43
2023-04-16T00:59:35.397Z,14.60
2023-04-16T01:00:08.626Z,14.63
2023-04-16T01:00:40.343Z,15.88
2023-04-16T01:01:12.036Z,13.68
2023-04-16T01:01:43.770Z,13.50
2023-04-16T01:02:15.933Z,13.48
2023-04-16T01:02:47.821Z,13.57
2023-04-16T01:03:19.783Z,13.93
2023-04-16T01:03:51.656Z,16.98
2023-04-16T01:04:23.747Z,13.80
2023-04-16T01:04:55.872Z,18.52
2023-04-16T01:05:27.576Z,16.45
2023-04-16T01:05:59.163Z,16.75
2023-04-16T01:06:30.785Z,16.52
2023-04-16T01:07:02.406Z,17.60
2023-04-16T01:07:34.018Z,17.50
2023-04-16T01:08:06.275Z,17.67
2023-04-16T01:08:38.607Z,16.33
2023-04-16T01:09:11.844Z,16.63
2023-04-16T01:09:43.429Z,16.88
2023-04-16T01:10:15.078Z,18.15
2023-04-16T01:10:46.795Z,22.13
2023-04-16T01:11:18.474Z,25.40
2023-04-16T01:11:50.093Z,26.77
2023-04-16T01:12:21.787Z,29.77
2023-04-16T01:12:53.386Z,27.00
2023-04-16T01:13:25.034Z,25.60
2023-04-16T01:13:56.676Z,29.65
2023-04-16T01:14:28.335Z,24.83
2023-04-16T01:15:00.123Z,22.23
2023-04-16T01:15:31.786Z,23.35
2023-04-16T01:16:03.585Z,19.95
2023-04-16T01:16:35.237Z,19.90
2023-04-16T01:17:06.816Z,19.92
2023-04-16T01:17:38.611Z,18.70
2023-04-16T01:18:17.896Z,19.13
2023-04-16T01:18:49.483Z,17.55
2023-04-16T01:19:21.083Z,19.75
2023-04-16T01:19:52.679Z,17.58
2023-04-16T01:20:24.596Z,17.48
2023-04-16T01:20:56.187Z,15.70
2023-04-16T01:21:28.164Z,17.00
2023-04-16T01:21:59.742Z,15.73
2023-04-16T01:22:31.599Z,16.95
2023-04-16T01:23:03.236Z,16.33
2023-04-16T01:23:35.097Z,16.55
2023-04-16T01:24:06.927Z,17.80
2023-04-16T01:24:39.677Z,15.48
2023-04-16T01:25:15.869Z,17.17
2023-04-16T01:25:47.704Z,14.50
2023-04-16T01:26:19.330Z,14.40
2023-04-16T01:26:50.945Z,15.18
2023-04-16T01:27:22.582Z,13.48
2023-04-16T01:27:54.940Z,13.75
2023-04-16T01:28:26.805Z,13.15
2023-04-16T01:28:59.695Z,13.50
2023-04-16T01:29:31.370Z,14.82
2023-04-16T01:30:03.219Z,12.68
2023-04-16T01:30:34.802Z,13.52
2023-04-16T01:31:06.561Z,14.57
2023-04-16T01:31:38.207Z,13.93
2023-04-16T01:32:09.833Z,14.52
2023-04-16T01:32:41.476Z,14.35
2023-04-16T01:33:14.125Z,15.38
2023-04-16T01:33:45.931Z,17.30
2023-04-16T01:34:17.515Z,14.20
2023-04-16T01:34:49.132Z,15.13
2023-04-16T01:35:20.960Z,14.60
2023-04-16T01:35:52.684Z,14.15
2023-04-16T01:36:24.260Z,15.57
2023-04-16T01:36:55.891Z,15.00
2023-04-16T01:37:27.536Z,13.90
2023-04-16T01:37:59.180Z,17.52
2023-04-16T01:38:30.770Z,13.70
2023-04-16T01:39:02.543Z,14.88
2023-04-16T01:39:34.197Z,13.85
2023-04-16T01:40:06.357Z,14.55
2023-04-16T01:40:38.605Z,14.18
2023-04-16T01:41:10.243Z,13.20
2023-04-16T01:41:42.467Z,14.73
2023-04-16T01:42:14.054Z,14.98
2023-04-16T01:42:45.801Z,15.35
2023-04-16T01:43:17.377Z,13.32
2023-04-16T01:43:48.942Z,15.00
2023-04-16T01:44:21.895Z,13.95
2023-04-16T01:44:53.526Z,13.85
2023-04-16T01:45:25.592Z,14.63
2023-04-16T01:46:18.046Z,14.90
2023-04-16T01:46:49.697Z,13.95
2023-04-16T01:47:21.663Z,13.85
2023-04-16T01:47:53.353Z,16.23
2023-04-16T01:48:25.023Z,16.35
2023-04-16T01:48:57.736Z,16.40
2023-04-16T01:49:29.670Z,15.07
2023-04-16T01:50:01.413Z,16.20
2023-04-16T01:50:33.606Z,15.00
2023-04-16T01:51:05.535Z,13.90
2023-04-16T01:51:37.158Z,15.27
2023-04-16T01:52:08.818Z,13.85
2023-04-16T01:52:40.519Z,15.05
2023-04-16T01:53:12.123Z,15.63
2023-04-16T01:53:43.737Z,14.52
2023-04-16T01:54:15.364Z,16.10
2023-04-16T01:54:46.989Z,14.93
2023-04-16T01:55:18.585Z,14.77
2023-04-16T01:55:50.215Z,15.23
2023-04-16T01:56:21.935Z,13.65
2023-04-16T01:56:53.545Z,13.98
2023-04-16T01:57:25.206Z,14.75
2023-04-16T01:57:56.820Z,14.88
2023-04-16T01:58:32.263Z,15.20
2023-04-16T01:59:03.926Z,16.00
2023-04-16T01:59:35.696Z,14.63
2023-04-16T02:00:08.795Z,14.63
2023-04-16T02:00:40.559Z,15.48
2023-04-16T02:01:12.443Z,15.27
2023-04-16T02:01:44.300Z,14.25
2023-04-16T02:02:17.014Z,14.38
2023-04-16T02:02:49.465Z,14.57
2023-04-16T02:03:21.689Z,14.27
2023-04-16T02:03:53.595Z,13.63
2023-04-16T02:04:25.392Z,14.85
2023-04-16T02:04:57.550Z,13.80
2023-04-16T02:05:29.205Z,15.90
2023-04-16T02:06:01.755Z,14.30
2023-04-16T02:06:33.402Z,14.13
2023-04-16T02:07:05.963Z,13.55
2023-04-16T02:07:37.592Z,13.88
2023-04-16T02:08:09.175Z,15.63
2023-04-16T02:08:41.551Z,15.85
2023-04-16T02:09:13.228Z,15.90
2023-04-16T02:09:44.879Z,14.27
2023-04-16T02:10:16.604Z,14.90
2023-04-16T02:10:50.228Z,15.60
2023-04-16T02:11:21.857Z,14.93
2023-04-16T02:11:53.454Z,14.25
2023-04-16T02:12:25.835Z,13.15
2023-04-16T02:12:57.417Z,15.48
2023-04-16T02:13:29.036Z,15.52
2023-04-16T02:14:00.835Z,14.02
2023-04-16T02:14:33.419Z,14.25
2023-04-16T02:15:05.458Z,15.43
2023-04-16T02:15:37.046Z,13.73
2023-04-16T02:16:09.186Z,15.10
2023-04-16T02:16:41.191Z,14.10
2023-04-16T02:17:12.946Z,14.43
2023-04-16T02:17:46.632Z,13.07
2023-04-16T02:18:18.810Z,13.85
2023-04-16T02:18:50.444Z,14.65
2023-04-16T02:19:22.216Z,13.70
2023-04-16T02:19:53.833Z,11.90
2023-04-16T02:20:25.699Z,14.57
2023-04-16T02:21:00.145Z,14.57
2023-04-16T02:21:32.003Z,14.23
2023-04-16T02:22:03.772Z,14.05
2023-04-16T02:22:35.469Z,14.82
2023-04-16T02:23:07.199Z,13.98
2023-04-16T02:23:41.136Z,14.63
2023-04-16T02:24:12.770Z,14.07
2023-04-16T02:24:44.386Z,14.63
2023-04-16T02:25:16.011Z,14.82
2023-04-16T02:25:48.069Z,14.63
2023-04-16T02:26:19.755Z,13.73
2023-04-16T02:26:51.492Z,17.58
2023-04-16T02:27:23.083Z,14.85
2023-04-16T02:27:55.236Z,15.95
2023-04-16T02:28:26.870Z,13.68
2023-04-16T02:28:58.546Z,13.27
2023-04-16T02:29:30.379Z,14.27
2023-04-16T02:30:02.921Z,14.00
2023-04-16T02:30:36.238Z,14.73
2023-04-16T02:31:07.857Z,14.88
2023-04-16T02:31:40.049Z,15.32
2023-04-16T02:32:11.878Z,14.27
2023-04-16T02:32:43.578Z,15.27
2023-04-16T02:33:15.359Z,14.43
2023-04-16T02:33:47.091Z,13.82
2023-04-16T02:34:18.748Z,13.27
2023-04-16T02:34:50.443Z,14.05
2023-04-16T02:35:22.072Z,14.13
2023-04-16T02:35:53.700Z,14.82
2023-04-16T02:36:25.673Z,12.70
2023-04-16T02:36:58.443Z,13.43
2023-04-16T02:37:30.324Z,14.32
2023-04-16T02:38:02.332Z,15.52
2023-04-16T02:38:33.952Z,14.50
2023-04-16T02:39:05.654Z,13.13
2023-04-16T02:39:37.380Z,13.25
2023-04-16T02:40:09.678Z,13.73
2023-04-16T02:40:41.520Z,13.27
2023-04-16T02:41:13.208Z,13.57
2023-04-16T02:41:44.794Z,13.63
2023-04-16T02:42:16.580Z,13.52
2023-04-16T02:42:48.232Z,13.77
2023-04-16T02:43:19.829Z,13.68
2023-04-16T02:43:51.558Z,14.90
2023-04-16T02:44:23.178Z,13.70
2023-04-16T02:44:54.800Z,14.00
2023-04-16T02:45:26.443Z,13.88
2023-04-16T02:45:59.470Z,13.85
2023-04-16T02:46:31.220Z,13.57
2023-04-16T02:47:02.900Z,14.27
2023-04-16T02:47:34.552Z,14.10
2023-04-16T02:48:08.841Z,13.20
2023-04-16T02:48:40.495Z,12.70
2023-04-16T02:49:12.258Z,12.88
2023-04-16T02:49:43.974Z,13.15
2023-04-16T02:50:16.091Z,14.52
2023-04-16T02:50:47.708Z,12.88
2023-04-16T02:51:19.305Z,15.52
2023-04-16T02:51:50.873Z,13.80
2023-04-16T02:52:22.502Z,15.88
2023-04-16T02:52:54.117Z,13.25
2023-04-16T02:53:25.774Z,13.90
2023-04-16T02:53:57.404Z,12.60
2023-04-16T02:54:29.013Z,14.13
2023-04-16T02:55:00.887Z,13.45
2023-04-16T02:55:32.468Z,14.63
2023-04-16T02:56:04.228Z,13.15
2023-04-16T02:56:36.053Z,14.63
2023-04-16T02:57:07.656Z,16.13
2023-04-16T02:57:39.368Z,13.32
2023-04-16T02:58:10.958Z,13.18
2023-04-16T02:58:42.554Z,14.65
2023-04-16T02:59:14.181Z,13.68
2023-04-16T02:59:45.904Z,12.10
2023-04-16T03:00:17.734Z,13.40
2023-04-16T03:00:49.604Z,13.43
2023-04-16T03:01:21.227Z,14.73
2023-04-16T03:01:52.947Z,16.42
2023-04-16T03:02:24.699Z,14.38
2023-04-16T03:02:56.533Z,14.13
2023-04-16T03:03:28.218Z,14.65
2023-04-16T03:04:00.000Z,16.52
2023-04-16T03:04:33.293Z,16.60
2023-04-16T03:05:05.664Z,15.23
2023-04-16T03:05:39.713Z,14.75
2023-04-16T03:06:11.846Z,15.45
2023-04-16T03:06:43.461Z,14.25
2023-04-16T03:07:15.161Z,15.18
2023-04-16T03:07:46.777Z,15.52
2023-04-16T03:08:18.404Z,15.07
2023-04-16T03:08:50.072Z,16.80
2023-04-16T03:09:21.892Z,14.93
2023-04-16T03:09:53.528Z,15.75
2023-04-16T03:10:25.172Z,15.50
2023-04-16T03:10:56.871Z,14.75
2023-04-16T03:11:28.460Z,15.93
2023-04-16T03:12:00.158Z,14.27
2023-04-16T03:12:31.735Z,17.17
2023-04-16T03:13:04.180Z,17.83
2023-04-16T03:13:36.362Z,16.33
2023-04-16T03:14:07.942Z,16.20
2023-04-16T03:14:39.661Z,15.82
2023-04-16T03:15:11.596Z,17.85
2023-04-16T03:15:49.718Z,17.23
2023-04-16T03:16:21.531Z,14.82
2023-04-16T03:16:53.509Z,14.88
2023-04-16T03:17:25.438Z,15.15
2023-04-16T03:17:57.725Z,18.73
2023-04-16T03:18:29.441Z,16.00
2023-04-16T03:19:01.291Z,16.75
2023-04-16T03:19:32.908Z,16.15
2023-04-16T03:20:05.254Z,15.30
2023-04-16T03:20:36.857Z,16.77
2023-04-16T03:21:08.472Z,16.77
2023-04-16T03:21:40.076Z,17.85
2023-04-16T03:22:11.639Z,15.55
2023-04-16T03:22:43.557Z,15.05
2023-04-16T03:23:15.170Z,17.13
2023-04-16T03:23:47.047Z,18.10
2023-04-16T03:24:18.619Z,16.95
2023-04-16T03:24:50.408Z,18.35
2023-04-16T03:25:22.041Z,14.98
2023-04-16T03:25:53.667Z,15.55
2023-04-16T03:26:25.672Z,15.00
2023-04-16T03:27:00.225Z,16.23
2023-04-16T03:27:32.417Z,15.85
2023-04-16T03:28:04.642Z,16.85
2023-04-16T03:28:36.463Z,15.40
2023-04-16T03:29:08.399Z,16.25
2023-04-16T03:29:40.284Z,18.08
2023-04-16T03:30:13.524Z,19.98
2023-04-16T03:30:52.034Z,18.10
2023-04-16T03:31:26.679Z,16.35
2023-04-16T03:31:58.558Z,19.27
2023-04-16T03:32:30.426Z,19.92
2023-04-16T03:33:02.069Z,22.02
2023-04-16T03:33:33.798Z,26.08
2023-04-16T03:34:05.824Z,26.88
2023-04-16T03:34:37.432Z,25.70
2023-04-16T03:35:09.693Z,27.98
2023-04-16T03:35:41.369Z,26.40
2023-04-16T03:36:12.999Z,26.77
2023-04-16T03:36:44.683Z,26.38
2023-04-16T03:37:16.747Z,24.90
2023-04-16T03:37:48.377Z,25.02
2023-04-16T03:38:20.009Z,21.02
2023-04-16T03:38:51.637Z,17.77
2023-04-16T03:39:23.254Z,18.02
2023-04-16T03:39:54.844Z,18.38
2023-04-16T03:40:26.456Z,17.52
2023-04-16T03:40:58.028Z,20.05
2023-04-16T03:41:29.631Z,16.45
2023-04-16T03:42:02.274Z,17.00
2023-04-16T03:42:33.948Z,16.23
2023-04-16T03:43:05.577Z,17.20
2023-04-16T03:43:37.248Z,19.08
2023-04-16T03:44:08.977Z,17.73
2023-04-16T03:44:40.598Z,16.73
2023-04-16T03:45:12.243Z,15.88
2023-04-16T03:45:45.422Z,17.70
2023-04-16T03:46:17.047Z,15.52
2023-04-16T03:46:48.732Z,17.05
2023-04-16T03:47:20.748Z,15.88
2023-04-16T03:47:53.036Z,17.35
2023-04-16T03:48:24.766Z,17.58
2023-04-16T03:48:56.457Z,18.80
2023-04-16T03:49:28.048Z,16.98
2023-04-16T03:49:59.625Z,17.70
2023-04-16T03:50:31.501Z,17.63
2023-04-16T03:51:03.251Z,18.95
2023-04-16T03:51:34.825Z,17.35
2023-04-16T03:52:06.499Z,16.38
2023-04-16T03:52:38.096Z,19.30
2023-04-16T03:53:09.708Z,19.20
2023-04-16T03:53:41.343Z,18.73
2023-04-16T03:54:13.196Z,17.30
2023-04-16T03:54:44.770Z,17.65
2023-04-16T03:55:16.531Z,20.42
2023-04-16T03:55:53.328Z,20.05
2023-04-16T03:56:25.149Z,17.25
2023-04-16T03:56:57.181Z,18.75
2023-04-16T03:57:28.785Z,16.83
2023-04-16T03:58:03.177Z,17.38
2023-04-16T03:58:34.797Z,17.13
2023-04-16T03:59:06.465Z,17.27
2023-04-16T03:59:38.157Z,16.52
2023-04-16T04:00:10.150Z,18.05
2023-04-16T04:00:43.122Z,16.52
2023-04-16T04:01:14.705Z,16.13
2023-04-16T04:01:46.411Z,17.73
2023-04-16T04:02:18.105Z,16.45
2023-04-16T04:02:49.932Z,15.50
2023-04-16T04:03:21.850Z,14.40
2023-04-16T04:03:53.921Z,15.77
2023-04-16T04:04:25.794Z,16.48
2023-04-16T04:04:57.557Z,16.10
2023-04-16T04:05:29.184Z,16.27
2023-04-16T04:06:00.781Z,17.23
2023-04-16T04:06:32.719Z,16.63
2023-04-16T04:07:04.347Z,16.90
2023-04-16T04:07:36.209Z,16.40
2023-04-16T04:08:08.932Z,16.00
2023-04-16T04:08:40.522Z,15.00
2023-04-16T04:09:12.185Z,16.92
2023-04-16T04:09:43.830Z,16.92
2023-04-16T04:10:16.350Z,16.80
2023-04-16T04:10:47.994Z,17.90
2023-04-16T04:11:19.807Z,16.52
2023-04-16T04:11:51.472Z,19.00
2023-04-16T04:12:23.110Z,17.20
2023-04-16T04:12:54.782Z,16.67
2023-04-16T04:13:26.445Z,17.63
2023-04-16T04:13:58.145Z,16.63
2023-04-16T04:14:29.704Z,16.70
2023-04-16T04:15:01.438Z,18.50
2023-04-16T04:15:33.075Z,16.75
2023-04-16T04:16:05.894Z,18.30
2023-04-16T04:16:37.595Z,17.50
2023-04-16T04:17:09.293Z,17.92
2023-04-16T04:17:41.081Z,21.25
2023-04-16T04:18:12.761Z,21.67
2023-04-16T04:18:44.636Z,28.88
2023-04-16T04:19:16.366Z,27.67
2023-04-16T04:20:00.327Z,28.23
2023-04-16T04:20:33.169Z,21.48
2023-04-16T04:21:08.864Z,20.55
2023-04-16T04:21:40.434Z,21.63
2023-04-16T04:22:12.041Z,17.83
2023-04-16T04:22:43.681Z,19.50
2023-04-16T04:23:15.507Z,18.15
2023-04-16T04:23:47.177Z,19.27
2023-04-16T04:24:18.803Z,16.85
2023-04-16T04:24:50.387Z,16.30
2023-04-16T04:25:22.024Z,17.17
2023-04-16T04:25:53.651Z,18.30
2023-04-16T04:26:25.566Z,16.67
2023-04-16T04:26:57.516Z,16.00
2023-04-16T04:27:29.185Z,17.83
2023-04-16T04:28:00.905Z,15.90
2023-04-16T04:28:33.021Z,16.95
2023-04-16T04:29:04.719Z,17.17
2023-04-16T04:29:36.337Z,15.13
2023-04-16T04:30:08.456Z,16.98
2023-04-16T04:30:40.070Z,15.35
2023-04-16T04:31:11.694Z,16.88
2023-04-16T04:31:43.488Z,16.40
2023-04-16T04:32:15.125Z,17.95
2023-04-16T04:32:46.743Z,18.25
2023-04-16T04:33:18.402Z,17.33
2023-04-16T04:33:50.012Z,16.45
2023-04-16T04:34:21.688Z,17.05
2023-04-16T04:34:53.317Z,17.08
2023-04-16T04:35:24.962Z,15.93
2023-04-16T04:35:56.582Z,17.88
2023-04-16T04:36:28.178Z,18.00
2023-04-16T04:36:59.792Z,16.80
2023-04-16T04:37:31.556Z,19.83
2023-04-16T04:38:03.241Z,21.67
2023-04-16T04:38:34.918Z,22.50
2023-04-16T04:39:06.630Z,17.73
2023-04-16T04:39:38.279Z,18.70
2023-04-16T04:40:10.242Z,29.05
2023-04-16T04:40:41.806Z,38.72
2023-04-16T04:41:13.429Z,37.80
2023-04-16T04:41:45.039Z,49.33
2023-04-16T04:42:20.650Z,55.63
2023-04-16T04:42:52.257Z,48.10
2023-04-16T04:43:24.521Z,44.08
2023-04-16T04:43:56.551Z,44.00
2023-04-16T04:44:28.162Z,29.67
2023-04-16T04:44:59.834Z,29.55
2023-04-16T04:45:32.302Z,30.08
2023-04-16T04:46:04.119Z,26.52
2023-04-16T04:46:35.756Z,22.92
2023-04-16T04:47:07.424Z,27.65
2023-04-16T04:47:39.079Z,31.35
2023-04-16T04:48:10.859Z,27.70
2023-04-16T04:48:42.508Z,22.25
2023-04-16T04:49:14.112Z,24.60
2023-04-16T04:49:45.936Z,21.42
2023-04-16T04:50:17.672Z,20.15
2023-04-16T04:50:49.283Z,21.17
2023-04-16T04:51:21.029Z,20.83
2023-04-16T04:51:52.659Z,19.33
2023-04-16T04:52:24.267Z,18.58
2023-04-16T04:52:56.001Z,18.88
2023-04-16T04:53:27.574Z,17.48
2023-04-16T04:53:59.266Z,16.83
2023-04-16T04:54:31.610Z,17.73
2023-04-16T04:55:03.348Z,19.65
2023-04-16T04:55:34.991Z,17.23
2023-04-16T04:56:12.143Z,16.67
2023-04-16T04:56:45.894Z,16.55
2023-04-16T04:57:17.577Z,16.30
2023-04-16T04:57:49.718Z,16.63
2023-04-16T04:58:21.328Z,16.05
2023-04-16T04:58:52.986Z,17.48
2023-04-16T04:59:25.112Z,15.32
2023-04-16T04:59:56.729Z,16.45
2023-04-16T05:00:28.338Z,16.65
2023-04-16T05:01:00.050Z,16.08
2023-04-16T05:01:31.791Z,15.90
2023-04-16T05:02:03.658Z,16.88
2023-04-16T05:02:35.598Z,16.55
2023-04-16T05:03:10.972Z,18.13
2023-04-16T05:03:42.698Z,17.15
2023-04-16T05:04:14.526Z,17.00
2023-04-16T05:04:46.250Z,15.70
2023-04-16T05:05:17.969Z,16.70
2023-04-16T05:05:49.583Z,16.55
2023-04-16T05:06:21.379Z,15.55
2023-04-16T05:06:52.948Z,17.50
2023-04-16T05:07:24.568Z,15.77
2023-04-16T05:07:56.378Z,17.40
2023-04-16T05:08:27.987Z,16.10
2023-04-16T05:08:59.587Z,15.43
2023-04-16T05:09:31.364Z,15.98
2023-04-16T05:10:03.052Z,16.65
2023-04-16T05:10:34.778Z,17.33
2023-04-16T05:11:06.410Z,17.30
2023-04-16T05:11:39.277Z,17.38
2023-04-16T05:12:10.973Z,15.85
2023-04-16T05:12:42.606Z,15.27
2023-04-16T05:13:14.221Z,15.80
2023-04-16T05:13:45.785Z,17.25
2023-04-16T05:14:17.389Z,16.75
2023-04-16T05:14:49.000Z,15.57
2023-04-16T05:15:20.664Z,16.48
2023-04-16T05:15:52.310Z,16.00
2023-04-16T05:16:23.956Z,16.95
2023-04-16T05:16:56.484Z,16.67
2023-04-16T05:17:28.156Z,16.10
2023-04-16T05:18:00.256Z,17.75
2023-04-16T05:18:32.848Z,15.82
2023-04-16T05:19:04.898Z,15.70
2023-04-16T05:19:36.841Z,14.77
2023-04-16T05:20:09.593Z,15.98
2023-04-16T05:20:41.223Z,16.40
2023-04-16T05:21:12.878Z,16.02
2023-04-16T05:21:44.496Z,15.93
2023-04-16T05:22:19.046Z,16.52
2023-04-16T05:22:51.342Z,16.42
2023-04-16T05:23:22.991Z,15.65
2023-04-16T05:23:54.635Z,15.43
2023-04-16T05:24:26.279Z,15.63
2023-04-16T05:24:57.910Z,16.10
2023-04-16T05:25:29.502Z,17.75
2023-04-16T05:26:01.075Z,17.65
2023-04-16T05:26:32.718Z,15.10
2023-04-16T05:27:04.482Z,15.48
2023-04-16T05:27:37.569Z,15.48
2023-04-16T05:28:10.052Z,16.58
2023-04-16T05:28:41.680Z,17.73
2023-04-16T05:29:13.351Z,16.15
2023-04-16T05:29:45.002Z,16.27
2023-04-16T05:30:16.657Z,14.48
2023-04-16T05:30:48.336Z,16.23
2023-04-16T05:31:20.123Z,16.00
2023-04-16T05:31:51.876Z,16.63
2023-04-16T05:32:26.404Z,14.85
2023-04-16T05:32:58.131Z,15.45
2023-04-16T05:33:29.845Z,14.55
2023-04-16T05:34:01.502Z,15.60
2023-04-16T05:34:33.088Z,17.42
2023-04-16T05:35:05.194Z,16.50
2023-04-16T05:35:36.870Z,15.38
2023-04-16T05:36:08.492Z,16.42
2023-04-16T05:36:40.100Z,14.82
2023-04-16T05:37:11.744Z,15.48
2023-04-16T05:37:43.400Z,16.17
2023-04-16T05:38:14.994Z,15.23
2023-04-16T05:38:46.641Z,15.10
2023-04-16T05:39:18.806Z,15.13
2023-04-16T05:39:50.526Z,15.50
2023-04-16T05:40:22.265Z,17.67
2023-04-16T05:40:53.869Z,15.27
2023-04-16T05:41:25.635Z,15.02
2023-04-16T05:41:57.265Z,13.65
2023-04-16T05:42:28.890Z,16.23
2023-04-16T05:43:00.524Z,16.17
2023-04-16T05:43:32.260Z,14.65
2023-04-16T05:44:03.979Z,14.13
2023-04-16T05:44:35.806Z,14.50
2023-04-16T05:45:07.961Z,15.15
2023-04-16T05:45:41.419Z,14.65
2023-04-16T05:46:13.199Z,13.55
2023-04-16T05:46:44.931Z,14.13
2023-04-16T05:47:17.555Z,13.77
2023-04-16T05:47:49.232Z,15.10
2023-04-16T05:48:21.006Z,14.02
2023-04-16T05:48:52.668Z,15.00
2023-04-16T05:49:24.291Z,14.32
2023-04-16T05:49:56.016Z,15.75
2023-04-16T05:50:27.596Z,16.30
2023-04-16T05:50:59.216Z,15.25
2023-04-16T05:51:32.437Z,13.32
2023-04-16T05:52:04.660Z,15.50
2023-04-16T05:52:36.267Z,14.57
2023-04-16T05:53:09.147Z,14.23
2023-04-16T05:53:41.070Z,15.18
2023-04-16T05:54:12.734Z,15.07
2023-04-16T05:54:44.343Z,15.52
2023-04-16T05:55:15.966Z,16.17
2023-04-16T05:55:47.606Z,15.85
2023-04-16T05:56:19.298Z,17.05
2023-04-16T05:56:50.963Z,16.88
2023-04-16T05:57:22.558Z,16.67
2023-04-16T05:57:54.254Z,16.42
2023-04-16T05:58:25.869Z,15.98
2023-04-16T05:58:57.488Z,15.25
2023-04-16T05:59:30.590Z,17.35
2023-04-16T06:00:02.263Z,17.27
2023-04-16T06:00:33.994Z,18.65
2023-04-16T06:01:05.754Z,21.40
2023-04-16T06:01:37.389Z,20.42
2023-04-16T06:02:09.278Z,20.77
2023-04-16T06:02:41.449Z,17.38
2023-04-16T06:03:13.435Z,17.52
2023-04-16T06:03:45.550Z,19.40
2023-04-16T06:04:17.433Z,19.00
2023-04-16T06:04:50.015Z,18.45
2023-04-16T06:05:21.885Z,16.88
2023-04-16T06:05:53.794Z,16.63
2023-04-16T06:06:27.457Z,14.98
2023-04-16T06:06:59.144Z,15.00
2023-04-16T06:07:30.774Z,16.15
2023-04-16T06:08:02.486Z,15.35
2023-04-16T06:08:34.061Z,15.15
2023-04-16T06:09:05.764Z,16.08
2023-04-16T06:09:37.348Z,14.88
2023-04-16T06:10:09.375Z,12.50
2023-04-16T06:10:40.995Z,13.50
2023-04-16T06:11:12.915Z,14.20
2023-04-16T06:11:44.756Z,15.07
2023-04-16T06:12:16.415Z,12.13
2023-04-16T06:12:48.129Z,14.77
2023-04-16T06:13:19.764Z,14.38
2023-04-16T06:13:51.487Z,13.23
2023-04-16T06:14:23.108Z,12.68
2023-04-16T06:14:54.924Z,13.32
2023-04-16T06:15:26.560Z,13.30
2023-04-16T06:15:58.178Z,13.52
2023-04-16T06:16:29.915Z,14.15
2023-04-16T06:17:01.622Z,15.02
2023-04-16T06:17:33.203Z,13.07
2023-04-16T06:18:05.015Z,13.18
2023-04-16T06:18:36.695Z,13.48
2023-04-16T06:19:08.909Z,13.48
2023-04-16T06:19:40.889Z,13.85
2023-04-16T06:20:13.002Z,13.73
2023-04-16T06:20:44.672Z,12.57
2023-04-16T06:21:16.611Z,14.15
2023-04-16T06:21:48.308Z,13.60
2023-04-16T06:22:19.945Z,13.50
2023-04-16T06:22:51.587Z,12.82
2023-04-16T06:23:23.220Z,15.70
2023-04-16T06:23:56.242Z,13.32
2023-04-16T06:24:27.933Z,14.27
2023-04-16T06:24:59.534Z,15.90
2023-04-16T06:25:31.130Z,14.82
2023-04-16T06:26:02.740Z,12.98
2023-04-16T06:26:34.359Z,14.63
2023-04-16T06:27:06.123Z,13.52
2023-04-16T06:27:37.793Z,13.95
2023-04-16T06:28:09.374Z,14.65
2023-04-16T06:28:41.024Z,14.60
2023-04-16T06:29:12.628Z,14.43
2023-04-16T06:29:44.489Z,13.45
2023-04-16T06:30:16.395Z,13.82
2023-04-16T06:30:48.221Z,13.13
2023-04-16T06:31:19.931Z,14.32
2023-04-16T06:31:51.594Z,13.20
2023-04-16T06:32:23.300Z,14.13
2023-04-16T06:32:55.009Z,14.75
2023-04-16T06:33:26.709Z,12.57
2023-04-16T06:33:58.348Z,15.10
2023-04-16T06:34:29.957Z,16.10
2023-04-16T06:35:01.587Z,15.63
2023-04-16T06:35:33.292Z,14.13
2023-04-16T06:36:05.153Z,15.82
2023-04-16T06:36:37.776Z,15.30
2023-04-16T06:37:10.719Z,15.85
2023-04-16T06:37:42.708Z,15.95
2023-04-16T06:38:14.750Z,12.82
2023-04-16T06:38:46.573Z,13.00
2023-04-16T06:39:18.408Z,14.80
2023-04-16T06:39:50.055Z,13.50
2023-04-16T06:40:21.711Z,13.93
2023-04-16T06:40:53.334Z,12.65
2023-04-16T06:41:26.735Z,12.45
2023-04-16T06:41:58.425Z,13.20
2023-04-16T06:42:30.109Z,12.77
2023-04-16T06:43:01.795Z,12.25
2023-04-16T06:43:33.882Z,12.18
2023-04-16T06:44:05.797Z,12.45
2023-04-16T06:44:37.392Z,12.05
2023-04-16T06:45:09.509Z,11.82
2023-04-16T06:45:41.220Z,11.80
2023-04-16T06:46:12.844Z,12.20
2023-04-16T06:46:44.517Z,11.70
2023-04-16T06:47:19.447Z,12.52
2023-04-16T06:47:52.469Z,12.05
2023-04-16T06:48:24.240Z,12.07
2023-04-16T06:48:56.063Z,14.02
2023-04-16T06:49:28.050Z,14.20
2023-04-16T06:49:59.658Z,13.25
2023-04-16T06:50:31.535Z,11.00
2023-04-16T06:51:03.345Z,12.73
2023-04-16T06:51:35.197Z,12.70
2023-04-16T06:52:07.191Z,13.25